createdAt,value
2018-02-04T00:00:12.958Z,986.06
2018-02-04T00:01:12.989Z,986.09
2018-02-04T00:02:13.019Z,986.11
2018-02-04T00:03:13.050Z,986.10
2018-02-04T00:04:13.080Z,986.09
2018-02-04T00:05:13.106Z,986.10
2018-02-04T00:06:13.134Z,986.09
2018-02-04T00:07:13.165Z,986.12
2018-02-04T00:08:13.193Z,986.12
2018-02-04T00:09:13.221Z,986.13
2018-02-04T00:10:13.302Z,986.17
2018-02-04T00:11:13.330Z,986.14
2018-02-04T00:12:13.311Z,986.19
2018-02-04T00:13:13.334Z,986.18
2018-02-04T00:14:13.369Z,986.17
2018-02-04T00:15:13.399Z,986.15
2018-02-04T00:16:13.424Z,986.19
2018-02-04T00:17:13.450Z,986.17
2018-02-04T00:18:13.481Z,986.18
2018-02-04T00:19:13.511Z,986.17
2018-02-04T00:20:13.541Z,986.20
2018-02-04T00:21:13.571Z,986.25
2018-02-04T00:22:13.597Z,986.23
2018-02-04T00:23:13.627Z,986.26
2018-02-04T00:24:13.654Z,986.21
2018-02-04T00:25:13.686Z,986.24
2018-02-04T00:26:13.711Z,986.24
2018-02-04T00:27:13.741Z,986.23
2018-02-04T00:28:13.770Z,986.20
2018-02-04T00:29:13.864Z,986.25
2018-02-04T00:30:13.831Z,986.26
2018-02-04T00:31:13.856Z,986.28
2018-02-04T00:32:13.887Z,986.25
2018-02-04T00:33:13.917Z,986.25
2018-02-04T00:34:13.948Z,986.22
2018-02-04T00:35:13.978Z,986.27
2018-02-04T00:36:14.207Z,986.25
2018-02-04T00:37:14.042Z,986.27
2018-02-04T00:38:14.058Z,986.28
2018-02-04T00:39:14.097Z,986.28
2018-02-04T00:40:14.136Z,986.26
2018-02-04T00:41:14.158Z,986.24
2018-02-04T00:42:14.177Z,986.26
2018-02-04T00:43:14.207Z,986.26
2018-02-04T00:44:14.239Z,986.23
2018-02-04T00:45:14.266Z,986.25
2018-02-04T00:46:14.297Z,986.25
2018-02-04T00:47:14.327Z,986.29
2018-02-04T00:48:14.353Z,986.31
2018-02-04T00:49:14.378Z,986.30
2018-02-04T00:50:14.409Z,986.30
2018-02-04T00:51:14.438Z,986.30
2018-02-04T00:52:14.467Z,986.32
2018-02-04T00:53:14.553Z,986.30
2018-02-04T00:54:14.525Z,986.33
2018-02-04T00:55:14.611Z,986.32
2018-02-04T00:56:14.584Z,986.33
2018-02-04T00:57:14.616Z,986.33
2018-02-04T00:58:14.640Z,986.36
2018-02-04T00:59:14.670Z,986.30
2018-02-04T01:00:14.696Z,986.33
2018-02-04T01:01:14.731Z,986.33
2018-02-04T01:02:14.757Z,986.36
2018-02-04T01:03:14.788Z,986.37
2018-02-04T01:04:14.835Z,986.39
2018-02-04T01:05:14.849Z,986.36
2018-02-04T01:06:14.875Z,986.42
2018-02-04T01:07:14.904Z,986.46
2018-02-04T01:08:14.932Z,986.50
2018-02-04T01:09:14.959Z,986.50
2018-02-04T01:10:15.050Z,986.48
2018-02-04T01:11:15.023Z,986.54
2018-02-04T01:12:15.048Z,986.58
2018-02-04T01:13:15.091Z,986.54
2018-02-04T01:14:15.108Z,986.60
2018-02-04T01:15:15.136Z,986.57
2018-02-04T01:16:15.163Z,986.61
2018-02-04T01:17:15.255Z,986.64
2018-02-04T01:18:15.220Z,986.65
2018-02-04T01:19:15.254Z,986.68
2018-02-04T01:20:15.278Z,986.70
2018-02-04T01:21:15.309Z,986.70
2018-02-04T01:22:15.340Z,986.73
2018-02-04T01:23:15.369Z,986.69
2018-02-04T01:24:15.398Z,986.76
2018-02-04T01:25:15.429Z,986.75
2018-02-04T01:26:15.451Z,986.79
2018-02-04T01:27:15.482Z,986.81
2018-02-04T01:28:15.510Z,986.76
2018-02-04T01:29:15.619Z,986.75
2018-02-04T01:30:15.570Z,986.78
2018-02-04T01:31:15.600Z,986.80
2018-02-04T01:32:15.631Z,986.82
2018-02-04T01:33:15.673Z,986.85
2018-02-04T01:34:15.685Z,986.83
2018-02-04T01:35:15.718Z,986.85
2018-02-04T01:36:15.750Z,986.83
2018-02-04T01:37:15.780Z,986.88
2018-02-04T01:38:15.814Z,986.88
2018-02-04T01:39:15.850Z,986.87
2018-02-04T01:40:15.863Z,986.92
2018-02-04T01:42:15.933Z,986.96
2018-02-04T01:43:15.952Z,986.98
2018-02-04T01:44:15.976Z,986.94
2018-02-04T01:45:16.004Z,986.93
2018-02-04T01:46:16.045Z,986.96
2018-02-04T01:47:16.064Z,986.99
2018-02-04T01:48:16.090Z,987.01
2018-02-04T01:49:16.122Z,986.94
2018-02-04T01:50:16.152Z,986.95
2018-02-04T01:51:16.178Z,987.01
2018-02-04T01:52:16.259Z,987.01
2018-02-04T01:53:16.338Z,986.95
2018-02-04T01:54:16.266Z,986.98
2018-02-04T01:55:16.296Z,986.99
2018-02-04T01:56:16.328Z,986.97
2018-02-04T01:57:16.354Z,987.02
2018-02-04T01:58:16.383Z,987.03
2018-02-04T01:59:16.468Z,987.04
2018-02-04T02:00:16.444Z,987.06
2018-02-04T02:01:16.474Z,987.06
2018-02-04T02:02:16.505Z,987.05
2018-02-04T02:03:16.530Z,987.08
2018-02-04T02:04:16.570Z,987.10
2018-02-04T02:05:16.589Z,987.11
2018-02-04T02:06:16.932Z,987.10
2018-02-04T02:07:16.654Z,987.12
2018-02-04T02:08:16.679Z,987.13
2018-02-04T02:09:16.706Z,987.11
2018-02-04T02:10:16.993Z,987.13
2018-02-04T02:11:16.765Z,987.13
2018-02-04T02:12:16.798Z,987.15
2018-02-04T02:13:16.824Z,987.19
2018-02-04T02:14:16.858Z,987.16
2018-02-04T02:15:16.885Z,987.21
2018-02-04T02:16:16.912Z,987.24
2018-02-04T02:17:16.942Z,987.24
2018-02-04T02:18:16.970Z,987.23
2018-02-04T02:19:17.320Z,987.22
2018-02-04T02:20:17.029Z,987.25
2018-02-04T02:21:17.060Z,987.28
2018-02-04T02:22:17.093Z,987.33
2018-02-04T02:23:17.119Z,987.31
2018-02-04T02:24:17.150Z,987.26
2018-02-04T02:25:17.179Z,987.25
2018-02-04T02:26:17.212Z,987.29
2018-02-04T02:27:17.244Z,987.25
2018-02-04T02:28:17.266Z,987.25
2018-02-04T02:29:17.431Z,987.28
2018-02-04T02:30:17.323Z,987.29
2018-02-04T02:31:17.352Z,987.29
2018-02-04T02:32:17.393Z,987.33
2018-02-04T02:33:17.415Z,987.33
2018-02-04T02:34:17.440Z,987.35
2018-02-04T02:35:17.471Z,987.36
2018-02-04T02:36:17.502Z,987.31
2018-02-04T02:37:17.540Z,987.36
2018-02-04T02:38:17.561Z,987.34
2018-02-04T02:39:17.589Z,987.36
2018-02-04T02:40:17.619Z,987.36
2018-02-04T02:41:17.648Z,987.30
2018-02-04T02:42:17.680Z,987.35
2018-02-04T02:43:17.710Z,987.32
2018-02-04T02:44:17.735Z,987.37
2018-02-04T02:45:17.772Z,987.35
2018-02-04T02:46:17.800Z,987.37
2018-02-04T02:47:17.827Z,987.37
2018-02-04T02:48:17.852Z,987.36
2018-02-04T02:49:17.882Z,987.42
2018-02-04T02:50:17.910Z,987.43
2018-02-04T02:51:17.945Z,987.45
2018-02-04T02:52:17.971Z,987.44
2018-02-04T02:53:18.083Z,987.47
2018-02-04T02:54:18.030Z,987.48
2018-02-04T02:55:18.063Z,987.49
2018-02-04T02:56:18.091Z,987.49
2018-02-04T02:57:18.131Z,987.46
2018-02-04T02:58:18.152Z,987.50
2018-02-04T02:59:18.176Z,987.55
2018-02-04T03:00:18.206Z,987.58
2018-02-04T03:01:18.234Z,987.59
2018-02-04T03:02:18.264Z,987.58
2018-02-04T03:03:18.298Z,987.56
2018-02-04T03:04:18.324Z,987.55
2018-02-04T03:05:18.353Z,987.53
2018-02-04T03:06:18.382Z,987.56
2018-02-04T03:07:18.413Z,987.60
2018-02-04T03:08:18.444Z,987.64
2018-02-04T03:09:18.468Z,987.65
2018-02-04T03:10:18.497Z,987.67
2018-02-04T03:11:18.533Z,987.66
2018-02-04T03:12:18.562Z,987.73
2018-02-04T03:13:18.593Z,987.74
2018-02-04T03:14:18.623Z,987.78
2018-02-04T03:15:18.645Z,987.82
2018-02-04T03:16:18.686Z,987.87
2018-02-04T03:17:18.703Z,987.88
2018-02-04T03:18:18.732Z,987.94
2018-02-04T03:19:18.764Z,987.96
2018-02-04T03:20:18.789Z,987.97
2018-02-04T03:21:18.824Z,988.04
2018-02-04T03:22:19.182Z,988.02
2018-02-04T03:23:18.885Z,988.07
2018-02-04T03:24:18.910Z,988.04
2018-02-04T03:25:18.946Z,988.05
2018-02-04T03:26:18.977Z,988.03
2018-02-04T03:27:18.997Z,988.10
2018-02-04T03:28:19.025Z,988.07
2018-02-04T03:29:19.056Z,988.11
2018-02-04T03:30:19.090Z,988.10
2018-02-04T03:31:19.118Z,988.12
2018-02-04T03:32:19.150Z,988.15
2018-02-04T03:33:19.175Z,988.13
2018-02-04T03:34:19.201Z,988.19
2018-02-04T03:35:19.250Z,988.23
2018-02-04T03:36:19.260Z,988.22
2018-02-04T03:37:19.292Z,988.22
2018-02-04T03:38:19.321Z,988.27
2018-02-04T03:39:19.425Z,988.28
2018-02-04T03:40:19.377Z,988.32
2018-02-04T03:41:19.407Z,988.31
2018-02-04T03:42:19.436Z,988.27
2018-02-04T03:43:19.467Z,988.33
2018-02-04T03:44:19.512Z,988.35
2018-02-04T03:45:19.531Z,988.37
2018-02-04T03:46:19.575Z,988.45
2018-02-04T03:47:19.583Z,988.45
2018-02-04T03:48:19.613Z,988.46
2018-02-04T03:49:19.648Z,988.54
2018-02-04T03:50:19.671Z,988.52
2018-02-04T03:51:19.702Z,988.58
2018-02-04T03:52:19.728Z,988.60
2018-02-04T03:53:19.760Z,988.61
2018-02-04T03:54:19.789Z,988.63
2018-02-04T03:55:19.815Z,988.68
2018-02-04T03:56:19.854Z,988.70
2018-02-04T03:57:19.874Z,988.66
2018-02-04T03:58:19.903Z,988.72
2018-02-04T03:59:19.933Z,988.69
2018-02-04T04:00:19.961Z,988.68
2018-02-04T04:01:19.990Z,988.69
2018-02-04T04:02:20.019Z,988.68
2018-02-04T04:03:20.049Z,988.67
2018-02-04T04:04:20.079Z,988.67
2018-02-04T04:05:20.110Z,988.70
2018-02-04T04:06:20.134Z,988.75
2018-02-04T04:07:20.169Z,988.75
2018-02-04T04:08:20.194Z,988.81
2018-02-04T04:09:20.221Z,988.81
2018-02-04T04:10:20.253Z,988.79
2018-02-04T04:11:20.295Z,988.79
2018-02-04T04:12:20.311Z,988.82
2018-02-04T04:13:20.343Z,988.81
2018-02-04T04:14:20.371Z,988.82
2018-02-04T04:15:20.451Z,988.84
2018-02-04T04:16:20.431Z,988.84
2018-02-04T04:17:20.456Z,988.84
2018-02-04T04:18:20.487Z,988.84
2018-02-04T04:19:20.514Z,988.88
2018-02-04T04:20:20.545Z,988.89
2018-02-04T04:21:20.574Z,988.90
2018-02-04T04:22:20.924Z,988.92
2018-02-04T04:23:20.632Z,988.93
2018-02-04T04:24:20.664Z,988.96
2018-02-04T04:25:20.693Z,988.98
2018-02-04T04:26:20.717Z,989.02
2018-02-04T04:27:20.747Z,989.04
2018-02-04T04:28:20.778Z,989.06
2018-02-04T04:29:20.813Z,989.08
2018-02-04T04:30:20.837Z,989.14
2018-02-04T04:31:20.866Z,989.10
2018-02-04T04:32:20.898Z,989.15
2018-02-04T04:33:20.922Z,989.14
2018-02-04T04:34:20.953Z,989.15
2018-02-04T04:35:20.983Z,989.14
2018-02-04T04:36:21.026Z,989.13
2018-02-04T04:37:21.045Z,989.12
2018-02-04T04:38:21.073Z,989.09
2018-02-04T04:39:21.193Z,989.08
2018-02-04T04:40:21.128Z,989.08
2018-02-04T04:41:21.156Z,989.13
2018-02-04T04:42:21.186Z,989.11
2018-02-04T04:43:21.213Z,989.15
2018-02-04T04:44:21.244Z,989.14
2018-02-04T04:45:21.290Z,989.15
2018-02-04T04:46:21.303Z,989.15
2018-02-04T04:47:21.336Z,989.18
2018-02-04T04:48:21.365Z,989.17
2018-02-04T04:49:21.390Z,989.18
2018-02-04T04:50:21.419Z,989.18
2018-02-04T04:51:21.448Z,989.19
2018-02-04T04:52:21.478Z,989.19
2018-02-04T04:53:21.507Z,989.21
2018-02-04T04:54:21.536Z,989.23
2018-02-04T04:55:21.566Z,989.22
2018-02-04T04:56:21.596Z,989.26
2018-02-04T04:57:21.626Z,989.26
2018-02-04T04:58:21.753Z,989.28
2018-02-04T04:59:21.682Z,989.26
2018-02-04T05:00:21.723Z,989.30
2018-02-04T05:01:21.739Z,989.36
2018-02-04T05:02:21.786Z,989.34
2018-02-04T05:03:21.797Z,989.37
2018-02-04T05:04:21.829Z,989.37
2018-02-04T05:05:21.859Z,989.40
2018-02-04T05:06:21.888Z,989.38
2018-02-04T05:07:21.937Z,989.41
2018-02-04T05:08:21.952Z,989.43
2018-02-04T05:09:21.972Z,989.44
2018-02-04T05:10:22.003Z,989.45
2018-02-04T05:11:22.034Z,989.45
2018-02-04T05:12:22.061Z,989.48
2018-02-04T05:13:22.098Z,989.44
2018-02-04T05:14:22.119Z,989.52
2018-02-04T05:15:22.221Z,989.52
2018-02-04T05:16:22.177Z,989.51
2018-02-04T05:17:22.208Z,989.48
2018-02-04T05:18:22.238Z,989.53
2018-02-04T05:19:22.264Z,989.57
2018-02-04T05:20:22.293Z,989.58
2018-02-04T05:21:22.338Z,989.57
2018-02-04T05:22:22.362Z,989.60
2018-02-04T05:23:22.381Z,989.58
2018-02-04T05:24:22.409Z,989.64
2018-02-04T05:25:22.438Z,989.62
2018-02-04T05:26:22.469Z,989.61
2018-02-04T05:27:22.499Z,989.61
2018-02-04T05:28:22.531Z,989.64
2018-02-04T05:29:22.559Z,989.63
2018-02-04T05:30:22.585Z,989.65
2018-02-04T05:31:22.616Z,989.66
2018-02-04T05:32:22.695Z,989.70
2018-02-04T05:33:22.678Z,989.73
2018-02-04T05:34:22.700Z,989.75
2018-02-04T05:35:22.733Z,989.77
2018-02-04T05:36:22.760Z,989.76
2018-02-04T05:37:22.792Z,989.79
2018-02-04T05:38:22.822Z,989.78
2018-02-04T05:39:23.168Z,989.80
2018-02-04T05:40:22.876Z,989.75
2018-02-04T05:41:22.907Z,989.79
2018-02-04T05:42:22.937Z,989.85
2018-02-04T05:43:22.966Z,989.79
2018-02-04T05:44:22.995Z,989.85
2018-02-04T05:45:23.036Z,989.85
2018-02-04T05:46:23.052Z,989.87
2018-02-04T05:47:23.083Z,989.89
2018-02-04T05:48:23.113Z,989.89
2018-02-04T05:49:23.142Z,989.94
2018-02-04T05:50:23.167Z,989.93
2018-02-04T05:51:23.251Z,989.95
2018-02-04T05:52:23.229Z,989.99
2018-02-04T05:53:23.256Z,990.01
2018-02-04T05:54:23.286Z,990.04
2018-02-04T05:55:23.313Z,990.05
2018-02-04T05:56:23.343Z,990.12
2018-02-04T05:57:23.373Z,990.12
2018-02-04T05:58:23.398Z,990.17
2018-02-04T05:59:23.428Z,990.19
2018-02-04T06:00:23.458Z,990.22
2018-02-04T06:01:23.489Z,990.24
2018-02-04T06:02:23.520Z,990.30
2018-02-04T06:03:23.547Z,990.30
2018-02-04T06:04:23.577Z,990.30
2018-02-04T06:05:23.611Z,990.30
2018-02-04T06:06:23.634Z,990.31
2018-02-04T06:07:23.664Z,990.33
2018-02-04T06:08:23.714Z,990.32
2018-02-04T06:09:23.722Z,990.35
2018-02-04T06:10:23.748Z,990.36
2018-02-04T06:11:23.780Z,990.38
2018-02-04T06:12:23.806Z,990.39
2018-02-04T06:13:23.836Z,990.37
2018-02-04T06:14:23.865Z,990.41
2018-02-04T06:15:24.224Z,990.44
2018-02-04T06:16:23.926Z,990.45
2018-02-04T06:17:23.955Z,990.46
2018-02-04T06:18:23.981Z,990.46
2018-02-04T06:19:24.028Z,990.54
2018-02-04T06:20:24.039Z,990.54
2018-02-04T06:21:24.072Z,990.52
2018-02-04T06:22:24.096Z,990.56
2018-02-04T06:23:24.126Z,990.62
2018-02-04T06:24:24.157Z,990.62
2018-02-04T06:25:24.202Z,990.67
2018-02-04T06:26:24.211Z,990.72
2018-02-04T06:27:24.251Z,990.72
2018-02-04T06:28:24.270Z,990.76
2018-02-04T06:29:24.302Z,990.75
2018-02-04T06:30:24.328Z,990.83
2018-02-04T06:31:24.357Z,990.83
2018-02-04T06:32:24.462Z,990.85
2018-02-04T06:33:24.413Z,990.87
2018-02-04T06:34:24.441Z,990.90
2018-02-04T06:35:24.494Z,990.87
2018-02-04T06:36:24.500Z,990.94
2018-02-04T06:37:24.529Z,990.95
2018-02-04T06:38:24.559Z,990.96
2018-02-04T06:39:24.586Z,990.91
2018-02-04T06:40:24.622Z,990.96
2018-02-04T06:41:24.647Z,990.97
2018-02-04T06:42:24.671Z,991.01
2018-02-04T06:43:24.701Z,991.03
2018-02-04T06:44:24.753Z,991.00
2018-02-04T06:45:24.758Z,991.12
2018-02-04T06:46:24.790Z,991.10
2018-02-04T06:47:24.829Z,991.13
2018-02-04T06:48:24.844Z,991.12
2018-02-04T06:49:24.887Z,991.15
2018-02-04T06:50:24.901Z,991.20
2018-02-04T06:51:24.933Z,991.20
2018-02-04T06:52:24.959Z,991.22
2018-02-04T06:53:24.991Z,991.25
2018-02-04T06:54:25.019Z,991.24
2018-02-04T06:55:25.046Z,991.28
2018-02-04T06:56:25.074Z,991.33
2018-02-04T06:57:25.103Z,991.33
2018-02-04T06:58:25.131Z,991.36
2018-02-04T06:59:25.162Z,991.34
2018-02-04T07:00:25.192Z,991.35
2018-02-04T07:01:25.272Z,991.40
2018-02-04T07:02:25.245Z,991.39
2018-02-04T07:03:25.286Z,991.42
2018-02-04T07:04:25.305Z,991.47
2018-02-04T07:05:25.334Z,991.48
2018-02-04T07:06:25.367Z,991.49
2018-02-04T07:07:25.392Z,991.54
2018-02-04T07:08:25.488Z,991.57
2018-02-04T07:09:25.447Z,991.56
2018-02-04T07:10:25.476Z,991.60
2018-02-04T07:11:25.516Z,991.62
2018-02-04T07:12:25.532Z,991.64
2018-02-04T07:13:25.562Z,991.67
2018-02-04T07:14:25.593Z,991.65
2018-02-04T07:15:25.618Z,991.68
2018-02-04T07:16:25.647Z,991.72
2018-02-04T07:17:25.676Z,991.66
2018-02-04T07:18:25.703Z,991.66
2018-02-04T07:19:25.734Z,991.69
2018-02-04T07:20:25.761Z,991.69
2018-02-04T07:21:25.789Z,991.73
2018-02-04T07:22:25.842Z,991.74
2018-02-04T07:23:25.846Z,991.78
2018-02-04T07:24:25.875Z,991.80
2018-02-04T07:25:26.229Z,991.79
2018-02-04T07:26:25.934Z,991.84
2018-02-04T07:27:25.966Z,991.85
2018-02-04T07:28:25.989Z,991.86
2018-02-04T07:29:26.019Z,991.86
2018-02-04T07:30:26.046Z,991.88
2018-02-04T07:31:26.076Z,991.89
2018-02-04T07:32:26.108Z,991.91
2018-02-04T07:33:26.136Z,991.91
2018-02-04T07:34:26.160Z,992.01
2018-02-04T07:35:26.189Z,992.00
2018-02-04T07:36:26.220Z,992.01
2018-02-04T07:37:26.299Z,992.03
2018-02-04T07:38:26.276Z,992.06
2018-02-04T07:39:26.306Z,992.07
2018-02-04T07:40:26.335Z,992.10
2018-02-04T07:41:26.379Z,992.10
2018-02-04T07:42:26.389Z,992.12
2018-02-04T07:43:26.418Z,992.19
2018-02-04T07:44:26.511Z,992.17
2018-02-04T07:45:26.474Z,992.22
2018-02-04T07:46:26.520Z,992.25
2018-02-04T07:47:26.534Z,992.30
2018-02-04T07:48:26.559Z,992.24
2018-02-04T07:49:26.591Z,992.29
2018-02-04T07:50:26.618Z,992.38
2018-02-04T07:51:26.660Z,992.33
2018-02-04T07:52:26.679Z,992.40
2018-02-04T07:53:26.706Z,992.44
2018-02-04T07:54:26.740Z,992.42
2018-02-04T07:55:26.762Z,992.46
2018-02-04T07:56:26.787Z,992.46
2018-02-04T07:57:26.818Z,992.50
2018-02-04T07:58:26.855Z,992.50
2018-02-04T07:59:26.875Z,992.50
2018-02-04T08:00:26.905Z,992.53
2018-02-04T08:01:26.964Z,992.53
2018-02-04T08:02:26.962Z,992.56
2018-02-04T08:03:26.989Z,992.55
2018-02-04T08:04:27.019Z,992.62
2018-02-04T08:05:27.050Z,992.62
2018-02-04T08:06:27.082Z,992.66
2018-02-04T08:07:27.103Z,992.66
2018-02-04T08:08:27.133Z,992.69
2018-02-04T08:09:27.162Z,992.70
2018-02-04T08:10:27.193Z,992.72
2018-02-04T08:11:27.220Z,992.74
2018-02-04T08:12:27.250Z,992.78
2018-02-04T08:13:27.281Z,992.75
2018-02-04T08:14:27.303Z,992.76
2018-02-04T08:15:27.337Z,992.80
2018-02-04T08:16:27.360Z,992.80
2018-02-04T08:17:27.392Z,992.84
2018-02-04T08:18:27.486Z,992.85
2018-02-04T08:19:27.466Z,992.86
2018-02-04T08:20:27.482Z,992.87
2018-02-04T08:21:27.507Z,992.89
2018-02-04T08:22:27.534Z,992.93
2018-02-04T08:23:27.562Z,992.90
2018-02-04T08:24:27.592Z,992.90
2018-02-04T08:25:27.623Z,992.90
2018-02-04T08:26:27.654Z,992.90
2018-02-04T08:27:27.677Z,992.92
2018-02-04T08:28:27.707Z,992.95
2018-02-04T08:29:27.742Z,992.97
2018-02-04T08:30:27.816Z,992.98
2018-02-04T08:31:27.794Z,993.00
2018-02-04T08:32:27.837Z,992.99
2018-02-04T08:33:27.854Z,993.05
2018-02-04T08:34:27.890Z,993.03
2018-02-04T08:35:27.909Z,993.08
2018-02-04T08:36:27.939Z,993.12
2018-02-04T08:37:28.039Z,993.10
2018-02-04T08:38:27.996Z,993.17
2018-02-04T08:39:28.234Z,993.20
2018-02-04T08:40:28.057Z,993.19
2018-02-04T08:41:28.097Z,993.20
2018-02-04T08:42:28.112Z,993.25
2018-02-04T08:43:28.140Z,993.26
2018-02-04T08:44:28.170Z,993.27
2018-02-04T08:45:28.198Z,993.29
2018-02-04T08:46:28.227Z,993.30
2018-02-04T08:47:28.308Z,993.30
2018-02-04T08:48:28.284Z,993.35
2018-02-04T08:49:28.327Z,993.36
2018-02-04T08:50:28.345Z,993.39
2018-02-04T08:51:28.374Z,993.36
2018-02-04T08:52:28.400Z,993.41
2018-02-04T08:53:28.430Z,993.40
2018-02-04T08:54:28.778Z,993.42
2018-02-04T08:55:28.486Z,993.42
2018-02-04T08:56:28.515Z,993.43
2018-02-04T08:57:28.546Z,993.42
2018-02-04T08:58:28.574Z,993.48
2018-02-04T08:59:28.603Z,993.47
2018-02-04T09:00:28.636Z,993.44
2018-02-04T09:01:28.662Z,993.46
2018-02-04T09:02:28.690Z,993.47
2018-02-04T09:03:28.719Z,993.54
2018-02-04T09:04:28.764Z,993.55
2018-02-04T09:05:28.776Z,993.58
2018-02-04T09:06:28.806Z,993.58
2018-02-04T09:07:28.837Z,993.59
2018-02-04T09:08:28.867Z,993.61
2018-02-04T09:09:28.908Z,993.63
2018-02-04T09:10:28.923Z,993.66
2018-02-04T09:11:29.008Z,993.67
2018-02-04T09:12:28.982Z,993.67
2018-02-04T09:13:29.012Z,993.72
2018-02-04T09:14:29.040Z,993.73
2018-02-04T09:15:29.068Z,993.74
2018-02-04T09:16:29.100Z,993.74
2018-02-04T09:17:29.129Z,993.79
2018-02-04T09:18:29.167Z,993.80
2018-02-04T09:19:29.189Z,993.82
2018-02-04T09:20:29.215Z,993.81
2018-02-04T09:21:29.246Z,993.82
2018-02-04T09:22:29.281Z,993.80
2018-02-04T09:23:29.310Z,993.89
2018-02-04T09:24:29.332Z,993.85
2018-02-04T09:25:29.362Z,993.86
2018-02-04T09:26:29.410Z,993.89
2018-02-04T09:27:29.486Z,993.89
2018-02-04T09:28:29.450Z,993.95
2018-02-04T09:29:29.684Z,993.95
2018-02-04T09:30:29.579Z,993.97
2018-02-04T09:31:29.540Z,993.96
2018-02-04T09:32:29.572Z,993.97
2018-02-04T09:33:29.609Z,993.96
2018-02-04T09:34:29.630Z,994.05
2018-02-04T09:35:29.664Z,994.01
2018-02-04T09:36:29.690Z,994.01
2018-02-04T09:37:29.782Z,994.01
2018-02-04T09:38:29.745Z,994.05
2018-02-04T09:39:29.777Z,994.04
2018-02-04T09:40:29.808Z,994.07
2018-02-04T09:41:29.834Z,994.07
2018-02-04T09:42:29.865Z,994.06
2018-02-04T09:43:29.902Z,994.06
2018-02-04T09:44:29.932Z,994.08
2018-02-04T09:45:29.955Z,994.15
2018-02-04T09:46:29.983Z,994.16
2018-02-04T09:47:30.072Z,994.13
2018-02-04T09:48:30.046Z,994.12
2018-02-04T09:49:30.072Z,994.21
2018-02-04T09:50:30.103Z,994.24
2018-02-04T09:51:30.133Z,994.22
2018-02-04T09:52:30.169Z,994.24
2018-02-04T09:53:30.392Z,994.22
2018-02-04T09:54:30.296Z,994.25
2018-02-04T09:55:30.248Z,994.24
2018-02-04T09:56:30.277Z,994.27
2018-02-04T09:57:30.307Z,994.28
2018-02-04T09:58:30.336Z,994.32
2018-02-04T09:59:30.444Z,994.30
2018-02-04T10:00:30.395Z,994.33
2018-02-04T10:01:30.423Z,994.35
2018-02-04T10:02:30.517Z,994.36
2018-02-04T10:03:30.485Z,994.40
2018-02-04T10:04:30.514Z,994.41
2018-02-04T10:05:30.539Z,994.45
2018-02-04T10:06:30.594Z,994.44
2018-02-04T10:07:30.653Z,994.47
2018-02-04T10:08:30.647Z,994.50
2018-02-04T10:09:30.657Z,994.43
2018-02-04T10:11:30.715Z,994.45
2018-02-04T10:12:30.760Z,994.49
2018-02-04T10:13:30.775Z,994.47
2018-02-04T10:14:30.801Z,994.51
2018-02-04T10:15:30.830Z,994.50
2018-02-04T10:16:31.279Z,994.48
2018-02-04T10:17:30.949Z,994.51
2018-02-04T10:18:31.126Z,994.47
2018-02-04T10:19:31.001Z,994.52
2018-02-04T10:20:31.033Z,994.52
2018-02-04T10:21:31.006Z,994.54
2018-02-04T10:22:31.053Z,994.54
2018-02-04T10:23:31.274Z,994.56
2018-02-04T10:24:31.301Z,994.60
2018-02-04T10:25:31.127Z,994.60
2018-02-04T10:26:31.151Z,994.62
2018-02-04T10:27:31.180Z,994.62
2018-02-04T10:28:31.209Z,994.66
2018-02-04T10:29:31.239Z,994.71
2018-02-04T10:30:31.267Z,994.75
2018-02-04T10:31:31.301Z,994.72
2018-02-04T10:32:31.328Z,994.72
2018-02-04T10:33:31.388Z,994.77
2018-02-04T10:34:31.456Z,994.73
2018-02-04T10:35:31.411Z,994.75
2018-02-04T10:36:31.440Z,994.78
2018-02-04T10:37:31.472Z,994.78
2018-02-04T10:38:31.568Z,994.76
2018-02-04T10:39:31.526Z,994.81
2018-02-04T10:40:31.961Z,994.80
2018-02-04T10:41:31.624Z,994.82
2018-02-04T10:42:31.614Z,994.80
2018-02-04T10:43:31.652Z,994.84
2018-02-04T10:44:31.674Z,994.83
2018-02-04T10:45:31.718Z,994.86
2018-02-04T10:46:31.732Z,994.88
2018-02-04T10:47:31.760Z,994.85
2018-02-04T10:48:31.857Z,994.88
2018-02-04T10:49:31.820Z,994.87
2018-02-04T10:50:31.850Z,994.93
2018-02-04T10:51:31.875Z,994.93
2018-02-04T10:52:31.905Z,994.97
2018-02-04T10:53:32.153Z,995.01
2018-02-04T10:54:32.300Z,995.02
2018-02-04T10:55:31.996Z,995.05
2018-02-04T10:56:32.025Z,995.05
2018-02-04T10:57:32.053Z,995.10
2018-02-04T10:58:32.080Z,995.11
2018-02-04T10:59:32.106Z,995.15
2018-02-04T11:00:32.146Z,995.16
2018-02-04T11:01:32.164Z,995.14
2018-02-04T11:02:32.197Z,995.17
2018-02-04T11:03:32.222Z,995.15
2018-02-04T11:04:32.252Z,995.16
2018-02-04T11:05:32.282Z,995.19
2018-02-04T11:06:32.312Z,995.19
2018-02-04T11:07:32.338Z,995.23
2018-02-04T11:08:32.368Z,995.23
2018-02-04T11:09:32.460Z,995.27
2018-02-04T11:10:32.425Z,995.25
2018-02-04T11:11:32.460Z,995.26
2018-02-04T11:12:32.482Z,995.26
2018-02-04T11:13:32.513Z,995.26
2018-02-04T11:14:32.604Z,995.27
2018-02-04T11:15:32.582Z,995.25
2018-02-04T11:16:32.719Z,995.26
2018-02-04T11:17:32.629Z,995.28
2018-02-04T11:18:32.658Z,995.29
2018-02-04T11:19:32.747Z,995.33
2018-02-04T11:20:32.723Z,995.30
2018-02-04T11:21:32.744Z,995.32
2018-02-04T11:22:32.774Z,995.28
2018-02-04T11:23:32.805Z,995.34
2018-02-04T11:24:32.833Z,995.33
2018-02-04T11:25:32.865Z,995.33
2018-02-04T11:26:32.895Z,995.35
2018-02-04T11:27:32.985Z,995.35
2018-02-04T11:28:32.950Z,995.37
2018-02-04T11:29:32.978Z,995.40
2018-02-04T11:30:33.015Z,995.41
2018-02-04T11:31:33.037Z,995.41
2018-02-04T11:32:33.067Z,995.39
2018-02-04T11:33:33.096Z,995.40
2018-02-04T11:34:33.128Z,995.42
2018-02-04T11:35:33.155Z,995.41
2018-02-04T11:36:33.200Z,995.36
2018-02-04T11:37:33.215Z,995.41
2018-02-04T11:38:33.241Z,995.47
2018-02-04T11:39:33.271Z,995.44
2018-02-04T11:40:33.302Z,995.45
2018-02-04T11:41:33.353Z,995.46
2018-02-04T11:42:33.362Z,995.45
2018-02-04T11:43:33.597Z,995.52
2018-02-04T11:44:33.419Z,995.50
2018-02-04T11:45:33.451Z,995.54
2018-02-04T11:46:33.477Z,995.62
2018-02-04T11:47:33.520Z,995.61
2018-02-04T11:48:33.539Z,995.59
2018-02-04T11:49:33.630Z,995.60
2018-02-04T11:50:33.598Z,995.58
2018-02-04T11:51:33.628Z,995.61
2018-02-04T11:52:33.658Z,995.62
2018-02-04T11:53:33.688Z,995.56
2018-02-04T11:54:33.718Z,995.61
2018-02-04T11:55:34.088Z,995.64
2018-02-04T11:56:33.777Z,995.63
2018-02-04T11:57:33.809Z,995.64
2018-02-04T11:58:33.852Z,995.62
2018-02-04T11:59:33.920Z,995.66
2018-02-04T12:00:33.901Z,995.63
2018-02-04T12:01:33.930Z,995.61
2018-02-04T12:02:33.993Z,995.65
2018-02-04T12:03:34.008Z,995.65
2018-02-04T12:04:34.030Z,995.66
2018-02-04T12:05:34.099Z,995.70
2018-02-04T12:06:34.280Z,995.73
2018-02-04T12:07:34.111Z,995.74
2018-02-04T12:08:34.138Z,995.72
2018-02-04T12:09:34.226Z,995.76
2018-02-04T12:10:34.204Z,995.79
2018-02-04T12:11:34.225Z,995.75
2018-02-04T12:12:34.262Z,995.75
2018-02-04T12:13:34.282Z,995.82
2018-02-04T12:14:34.311Z,995.82
2018-02-04T12:15:34.348Z,995.84
2018-02-04T12:16:34.673Z,995.78
2018-02-04T12:17:34.405Z,995.82
2018-02-04T12:18:34.633Z,995.83
2018-02-04T12:19:34.540Z,995.80
2018-02-04T12:20:34.485Z,995.80
2018-02-04T12:21:34.532Z,995.77
2018-02-04T12:22:34.545Z,995.79
2018-02-04T12:23:34.574Z,995.74
2018-02-04T12:24:34.662Z,995.79
2018-02-04T12:25:34.637Z,995.73
2018-02-04T12:26:34.665Z,995.74
2018-02-04T12:27:34.696Z,995.75
2018-02-04T12:28:34.721Z,995.76
2018-02-04T12:29:34.851Z,995.73
2018-02-04T12:30:34.795Z,995.80